Latest Coastal Weather Observations for Stenhouse Bay

IDS60701

Issued at 2:02 pm CST Sunday 19 April 2015 (issued every 10 minutes, with the page automatically refreshed every 10 minutes)

About coastal observations | Map of coastal stations | Coastal observations for SA | Marine services | Other Formats
Station Details ID: 022049 Name: STENHOUSE BAY Lat: -35.28 Lon: 136.94 Height: 42.0 m
Data from the previous 72 hours. | See also: Recent months at Stenhouse Bay
Date/Time
CST
Temp

°C
Wind Pressure Rain
since 9am
mm
Weather Cloud Vis
km
Sea
Height
m
Swell
Dir
 
Speed
knots
Gust
knots
hPa Trend Height
m
Period
s
Dir
19/02:00pm 15.9 SSE 12 18 1034.0 - 0.0 - - - - - - -
19/01:30pm 15.1 SSE 11 15 1033.9 - 0.0 - - - - - - -
19/01:00pm 15.9 SSE 12 17 1034.1 - 0.0 - - - - - - -
19/12:30pm 15.2 SSE 15 20 1034.3 - 0.0 - - - - - - -
19/12:00pm 14.4 SSE 16 20 1034.4 - 0.0 - - - - - - -
19/11:30am 14.3 SSE 18 22 1034.3 - 0.0 - - - - - - -
19/11:00am 16.0 SSE 15 20 1034.3 - 0.0 - - - - - - -
19/10:30am 15.0 SSE 15 21 1034.1 - 0.0 - - - - - - -
19/10:00am 14.5 SSE 16 21 1034.0 - 0.0 - - - - - - -
19/09:30am 14.4 SSE 18 25 1033.9 - 0.0 - - - - - - -
19/09:00am 13.9 SSE 18 24 1033.4 - 0.8 - - - - - - -
19/08:30am 13.3 SSE 18 24 1033.0 - 0.8 - - - - - - -
19/08:00am 13.3 SSE 19 26 1032.2 - 0.8 - - - - - - -
19/07:30am 12.9 SSE 18 22 1031.4 - 0.8 - - - - - - -
19/07:00am 12.4 SSE 18 22 1030.8 - 0.8 - - - - - - -
19/06:30am 12.4 SSE 19 24 1030.3 - 0.8 - - - - - - -
19/06:00am 12.4 S 20 26 1029.8 - 0.8 - - - - - - -
19/05:30am 12.2 SSE 21 25 1029.3 - 0.8 - - - - - - -
19/05:00am 12.4 S 23 28 1028.9 - 0.8 - - - - - - -
19/04:36am 12.8 S 20 30 1028.3 - 0.8 - - - - - - -
19/04:30am 12.6 S 18 23 1028.4 - 0.8 - - - - - - -
19/04:00am 12.3 S 20 25 1028.0 - 0.8 - - - - - - -
19/03:30am 12.5 SSE 18 22 1027.6 - 0.8 - - - - - - -
19/03:00am 12.1 S 18 23 1027.6 - 0.8 - - - - - - -
19/02:30am 12.7 S 20 25 1027.6 - 0.8 - - - - - - -
19/02:00am 12.7 S 21 28 1027.3 - 0.8 - - - - - - -
19/01:30am 13.0 S 18 23 1027.1 - 0.8 - - - - - - -
19/01:00am 12.6 S 21 27 1026.8 - 0.8 - - - - - - -
19/12:30am 12.8 S 16 23 1026.6 - 0.8 - - - - - - -
19/12:00am 12.7 S 20 25 1026.4 - 0.8 - - - - - - -
 
Date/Time
CST
Temp

°C
Wind Pressure Rain
since 9am
mm
Weather Cloud Vis
km
Sea
Height
m
Swell
Dir
 
Speed
knots
Gust
knots
hPa Trend Height
m
Period
s
Dir
18/11:37pm 13.6 S 16 31 1026.0 - 0.8 - - - - - - -
18/11:30pm 13.4 SSW 15 21 1026.0 - 0.8 - - - - - - -
18/11:00pm 13.2 S 18 23 1025.7 - 0.8 - - - - - - -
18/10:30pm 13.3 S 18 23 1025.6 - 0.8 - - - - - - -
18/10:00pm 13.9 SSW 18 24 1025.1 - 0.8 - - - - - - -
18/09:30pm 14.1 SSW 17 24 1024.7 - 0.8 - - - - - - -
18/09:00pm 13.8 S 18 23 1024.1 - 0.8 - - - - - - -
18/08:30pm 13.9 S 18 24 1023.7 - 0.8 - - - - - - -
18/08:00pm 14.0 SSW 22 29 1023.1 - 0.8 - - - - - - -
18/07:51pm 14.1 SSW 18 29 1022.9 - 0.8 - - - - - - -
18/07:30pm 14.0 SSW 16 22 1022.7 - 0.8 - - - - - - -
18/07:00pm 14.2 S 21 26 1022.0 - 0.8 - - - - - - -
18/06:30pm 14.4 SSW 20 26 1021.2 - 0.8 - - - - - - -
18/06:00pm 14.6 SSW 17 24 1020.6 - 0.8 - - - - - - -
18/05:30pm 14.6 SSW 16 24 1019.9 - 0.8 - - - - - - -
18/05:07pm 15.0 SSW 17 27 1019.6 - 0.8 - - - - - - -
18/05:00pm 15.2 SSW 19 26 1019.4 - 0.8 - - - - - - -
18/04:41pm 15.2 SSW 15 27 1019.1 - 0.8 - - - - - - -
18/04:30pm 15.1 SSW 14 20 1019.0 - 0.8 - - - - - - -
18/04:00pm 14.4 SSW 14 21 1018.7 - 0.8 - - - - - - -
18/03:30pm 14.0 SSW 14 21 1018.6 - 0.8 - - - - - - -
18/03:00pm 13.5 SSW 15 21 1018.2 - 0.6 Recent precip. - - - - - -
18/02:30pm 13.5 SSW 20 27 1017.9 - 0.4 - - - - - - -
18/02:00pm 14.6 SSW 18 27 1017.3 - 0.4 - - - - - - -
18/01:30pm 15.3 SSW 20 28 1016.8 - 0.4 - - - - - - -
18/01:01pm 15.4 SW 17 28 1016.7 - 0.4 - - - - - - -
18/01:00pm 15.3 SW 18 28 1016.7 - 0.4 - - - - - - -
18/12:30pm 16.9 W 19 31 1016.5 - 0.0 - - - - - - -
18/12:27pm 18.1 WNW 18 31 1016.3 - 0.0 - - - - - - -
18/12:00pm 18.8 WNW 16 23 1016.5 - 0.0 - - - - - - -
18/11:30am 18.4 WNW 11 17 1016.8 - 0.0 - - - - - - -
18/11:00am 19.2 NW 13 19 1017.0 - 0.0 - - - - - - -
18/10:30am 19.0 WNW 15 20 1016.9 - 0.0 - - - - - - -
18/10:00am 18.4 WNW 15 21 1016.9 - 0.0 - - - - - - -
18/09:30am 17.7 WNW 11 17 1017.0 - 0.0 - - - - - - -
18/09:00am 16.2 WNW 13 18 1017.1 - 1.6 - - - - - - -
18/08:30am 16.2 NW 11 16 1016.8 - 1.6 - - - - - - -
18/08:00am 15.3 NW 9 14 1016.6 - 1.6 - - - - - - -
18/07:30am 14.8 WNW 10 15 1016.3 - 1.6 - - - - - - -
18/07:00am 14.4 NW 10 14 1015.9 - 1.4 - - - - - - -
18/06:30am 14.7 NW 10 15 1016.0 - 1.4 - - - - - - -
18/06:00am 14.7 NW 9 13 1015.8 - 1.4 - - - - - - -
18/05:30am 14.3 NW 11 14 1015.9 - 1.4 - - - - - - -
18/05:00am 12.6 NW 8 10 1015.8 - 1.4 - - - - - - -
18/04:30am 11.9 NW 8 9 1015.6 - 1.4 - - - - - - -
18/04:00am 12.5 WNW 8 10 1015.5 - 1.4 - - - - - - -
18/03:30am 12.3 WNW 7 9 1015.6 - 1.4 - - - - - - -
18/03:00am 12.0 WNW 7 9 1015.7 - 1.4 - - - - - - -
18/02:30am 11.9 WNW 7 8 1015.9 - 1.4 - - - - - - -
18/02:00am 12.2 WNW 6 8 1016.3 - 1.4 - - - - - - -
18/01:30am 12.4 W 8 10 1016.6 - 1.4 - - - - - - -
18/01:00am 11.9 W 8 9 1016.8 - 1.4 - - - - - - -
18/12:30am 12.0 W 7 8 1016.9 - 1.4 - - - - - - -
18/12:00am 12.6 W 6 7 1017.3 - 1.4 - - - - - - -
 
Date/Time
CST
Temp

°C
Wind Pressure Rain
since 9am
mm
Weather Cloud Vis
km
Sea
Height
m
Swell
Dir
 
Speed
knots
Gust
knots
hPa Trend Height
m
Period
s
Dir
17/11:30pm 14.1 WSW 7 9 1017.5 - 1.4 - - - - - - -
17/11:00pm 14.2 W 5 7 1017.8 - 1.4 - - - - - - -
17/10:30pm 14.6 WSW 7 12 1018.2 - 1.4 - - - - - - -
17/10:00pm 14.8 SW 7 11 1018.2 - 1.4 - - - - - - -
17/09:30pm 14.8 SW 8 11 1018.2 - 1.4 - - - - - - -
17/09:00pm 14.8 SSW 8 11 1018.1 - 1.4 - - - - - - -
17/08:30pm 14.6 SSW 7 11 1017.8 - 1.4 - - - - - - -
17/08:00pm 15.1 SW 10 15 1017.5 - 1.4 - - - - - - -
17/07:30pm 15.2 SW 8 12 1017.4 - 1.4 - - - - - - -
17/07:00pm 15.4 SSE 5 8 1017.2 - 1.4 - - - - - - -
17/06:30pm 15.5 SW 8 11 1016.8 - 1.4 - - - - - - -
17/06:00pm 15.4 SW 8 11 1016.8 - 1.4 - - - - - - -
17/05:30pm 15.4 SW 7 9 1016.5 - 1.4 - - - - - - -
17/05:00pm 14.9 SW 6 9 1016.6 - 1.4 - - - - - - -
17/04:30pm 14.4 SW 6 9 1016.8 - 1.4 - - - - - - -
17/04:00pm 14.4 SW 4 7 1016.8 - 1.4 - - - - - - -
17/03:30pm 14.5 SSW 7 11 1016.9 - 1.2 - - - - - - -
17/03:00pm 14.9 S 9 12 1017.0 - 1.2 - - - - - - -
17/02:30pm 14.7 SSE 11 13 1017.0 - 1.2 - - - - - - -
17/02:00pm 15.1 SE 10 14 1017.1 - 1.2 - - - - - - -
17/01:30pm 15.3 SE 10 13 1017.4 - 1.2 - - - - - - -
17/01:00pm 14.3 ESE 12 16 1017.8 - 1.2 - - - - - - -
17/12:30pm 14.2 SE 10 14 1018.5 - 1.2 - - - - - - -
17/12:00pm 14.3 ESE 12 15 1019.3 - 1.0 Recent precip. - - - - - -
17/11:30am 14.3 ESE 13 16 1019.8 - 0.6 - - - - - - -
17/11:00am 14.2 SE 13 16 1020.3 - 0.6 - - - - - - -
17/10:30am 14.2 SE 13 16 1020.7 - 0.6 - - - - - - -
17/10:00am 14.2 SE 15 18 1020.8 - 0.2 - - - - - - -
17/09:30am 14.7 SE 16 21 1021.0 - 0.0 - - - - - - -
17/09:00am 14.7 SE 14 18 1021.1 - 6.2 Recent precip. - - - - - -
17/08:30am 14.4 SE 15 19 1021.1 - 6.2 - - - - - - -
17/08:00am 14.4 SE 15 19 1021.0 - 6.0 - - - - - - -
17/07:30am 14.3 SE 14 18 1020.8 - 6.0 - - - - - - -
17/07:00am 14.3 ESE 14 17 1020.6 - 6.0 - - - - - - -
17/06:30am 14.2 SE 13 17 1020.5 - 6.0 - - - - - - -
17/06:00am 14.3 SE 14 18 1020.6 - 6.0 Recent precip. - - - - - -
17/05:30am 14.3 SE 13 18 1020.7 - 6.0 - - - - - - -
17/05:00am 14.4 SE 13 18 1020.8 - 5.8 - - - - - - -
17/04:30am 14.4 SSE 12 16 1020.9 - 5.6 - - - - - - -
17/04:00am 14.3 SE 12 15 1020.8 - 5.6 - - - - - - -
17/03:30am 14.7 SE 12 14 1021.0 - 5.6 - - - - - - -
17/03:00am 14.7 SE 9 11 1021.6 - 5.4 Recent precip. - - - - - -
17/02:30am 14.7 ESE 11 13 1021.9 - 5.2 - - - - - - -
17/02:00am 14.7 E 11 15 1022.2 - 5.0 - - - - - - -
17/01:30am 14.7 E 13 16 1022.5 - 4.6 - - - - - - -
17/01:00am 15.0 E 13 16 1022.8 - 4.6 - - - - - - -
17/12:30am 14.8 ESE 13 16 1022.9 - 4.4 - - - - - - -
17/12:00am 14.7 ESE 14 17 1023.1 - 4.2 - - - - - - -
 
Date/Time
CST
Temp

°C
Wind Pressure Rain
since 9am
mm
Weather Cloud Vis
km
Sea
Height
m
Swell
Dir
 
Speed
knots
Gust
knots
hPa Trend Height
m
Period
s
Dir
16/11:30pm 14.6 ESE 14 19 1023.4 - 4.2 - - - - - - -
16/11:00pm 14.5 ESE 14 17 1024.0 - 4.2 - - - - - - -
16/10:30pm 14.2 ESE 15 18 1024.4 - 4.2 - - - - - - -
16/10:00pm 14.2 SE 15 19 1024.6 - 4.2 - - - - - - -
16/09:30pm 14.2 SE 14 18 1024.8 - 4.0 - - - - - - -
16/09:00pm 14.2 ESE 15 18 1024.8 - 4.0 Rain - - - - - -
16/08:30pm 13.9 ESE 17 20 1024.8 - 3.4 - - - - - - -
16/08:00pm 13.9 SE 16 20 1024.9 - 3.0 - - - - - - -
16/07:30pm 14.2 SE 16 21 1024.8 - 2.0 - - - - - - -
16/07:00pm 14.4 SE 16 21 1024.7 - 1.4 - - - - - - -
16/06:30pm 14.9 SE 17 20 1023.9 - 1.0 - - - - - - -
16/06:00pm 14.8 SE 15 18 1023.7 - 1.0 Recent precip. - - - - - -
16/05:30pm 15.0 SE 14 19 1023.6 - 0.8 - - - - - - -
16/05:00pm 15.2 ESE 11 14 1024.0 - 0.6 - - - - - - -
16/04:30pm 15.4 SE 11 13 1024.3 - 0.4 - - - - - - -
16/04:00pm 15.6 ESE 11 13 1024.0 - 0.4 - - - - - - -
16/03:30pm 15.6 ESE 11 14 1023.9 - 0.4 - - - - - - -
16/03:00pm 15.6 ESE 11 13 1023.8 - 0.4 Recent precip. - - - - - -
16/02:30pm 15.8 ESE 8 10 1024.6 - 0.2 - - - - - - -

Other Formats:

Comma delimited format used in spreadsheet applications
http://www.bom.gov.au/fwo/IDS60701/IDS60701.95806.axf

JavaScript Object Notation format (JSON) in row-major order
http://www.bom.gov.au/fwo/IDS60701/IDS60701.95806.json